Terminal Aerodrome Forecast
Issued by NWS

Home | Current Version | Previous Version | Text Only | Print | Product List | Glossary On
Versions: 1 2 3 4 5 6 7 8 9 10 11 12 13 14 15 16 17 18 19 20 21 22 23 24 25 26 27 28 29 30
000
FTUS42 KCAE 172330
TAFDNL
TAF
KDNL 172330Z 1800/1824 21005KT P6SM BKN250
     FM180800 23006KT 5SM BR SCT015 BKN050
     FM181000 24007KT 3SM BR OVC004
     FM181500 27010G16KT P6SM SCT008 BKN020
     FM181800 27010G20KT P6SM SCT030 BKN080=

USA.gov is the U.S. government's official web portal to all federal, state and local government web resources and services.